createdAt,value
2022-09-28T00:01:43.960Z,99.90
2022-09-28T00:04:33.401Z,99.90
2022-09-28T00:07:22.055Z,99.90
2022-09-28T00:10:12.511Z,99.90
2022-09-28T00:13:02.841Z,99.90
2022-09-28T00:16:01.169Z,99.90
2022-09-28T00:18:51.338Z,99.90
2022-09-28T00:21:42.641Z,99.90
2022-09-28T00:24:31.304Z,99.90
2022-09-28T00:27:19.941Z,99.90
2022-09-28T00:30:11.593Z,99.90
2022-09-28T00:33:00.233Z,99.90
2022-09-28T00:35:55.541Z,99.90
2022-09-28T00:38:44.200Z,99.90
2022-09-28T00:41:33.200Z,99.90
2022-09-28T00:44:38.121Z,99.90
2022-09-28T00:47:43.049Z,99.90
2022-09-28T00:50:35.421Z,99.90
2022-09-28T00:53:27.798Z,99.90
2022-09-28T00:56:19.697Z,99.90
2022-09-28T00:59:10.137Z,99.90
2022-09-28T01:01:59.119Z,99.90
2022-09-28T01:04:50.860Z,99.90
2022-09-28T01:07:40.293Z,99.90
2022-09-28T01:10:30.268Z,99.90
2022-09-28T01:13:20.124Z,99.90
2022-09-28T01:16:18.193Z,99.90
2022-09-28T01:19:24.860Z,99.90
2022-09-28T01:22:29.376Z,99.90
2022-09-28T01:25:32.705Z,99.90
2022-09-28T01:28:24.992Z,99.90
2022-09-28T01:31:16.133Z,99.90
2022-09-28T01:34:10.021Z,99.90
2022-09-28T01:37:02.895Z,99.90
2022-09-28T01:39:54.829Z,99.90
2022-09-28T01:42:46.307Z,99.90
2022-09-28T01:45:43.447Z,99.90
2022-09-28T01:48:38.131Z,99.90
2022-09-28T01:51:33.372Z,99.90
2022-09-28T01:54:26.401Z,99.90
2022-09-28T01:57:18.833Z,99.90
2022-09-28T02:00:10.703Z,99.90
2022-09-28T02:03:06.934Z,99.90
2022-09-28T02:06:00.447Z,99.90
2022-09-28T02:08:54.025Z,99.90
2022-09-28T02:11:47.071Z,99.90
2022-09-28T02:14:37.852Z,99.90
2022-09-28T02:17:26.623Z,99.90
2022-09-28T02:20:17.420Z,99.90
2022-09-28T02:23:06.689Z,99.90
2022-09-28T02:26:02.166Z,99.90
2022-09-28T02:28:51.027Z,99.90
2022-09-28T02:31:39.760Z,99.90
2022-09-28T02:34:28.597Z,99.90
2022-09-28T02:37:18.713Z,99.90
2022-09-28T02:40:15.059Z,99.90
2022-09-28T02:43:10.800Z,99.90
2022-09-28T02:46:13.031Z,99.90
2022-09-28T02:49:21.895Z,99.90
2022-09-28T02:52:26.743Z,99.90
2022-09-28T02:55:25.265Z,99.90
2022-09-28T02:58:24.647Z,99.90
2022-09-28T03:01:25.428Z,99.90
2022-09-28T03:04:22.795Z,99.90
2022-09-28T03:07:22.575Z,99.90
2022-09-28T03:10:18.167Z,99.90
2022-09-28T03:13:08.799Z,99.90
2022-09-28T03:16:12.420Z,99.90
2022-09-28T03:19:01.131Z,99.90
2022-09-28T03:21:49.976Z,99.90
2022-09-28T03:24:38.608Z,99.90
2022-09-28T03:27:28.769Z,99.90
2022-09-28T03:30:17.731Z,99.90
2022-09-28T03:33:07.090Z,99.90
2022-09-28T03:35:55.839Z,99.90
2022-09-28T03:38:44.496Z,99.90
2022-09-28T03:41:33.159Z,99.90
2022-09-28T03:44:23.321Z,99.90
2022-09-28T03:47:12.091Z,99.90
2022-09-28T03:50:00.740Z,99.90
2022-09-28T03:52:49.396Z,99.90
2022-09-28T03:55:38.437Z,99.90
2022-09-28T03:58:29.806Z,99.90
2022-09-28T04:01:20.027Z,99.90
2022-09-28T04:04:08.728Z,99.90
2022-09-28T04:06:57.392Z,99.90
2022-09-28T04:09:46.010Z,99.90
2022-09-28T04:12:34.693Z,99.90
2022-09-28T04:15:23.672Z,99.90
2022-09-28T04:18:14.773Z,99.90
2022-09-28T04:21:06.818Z,99.90
2022-09-28T04:23:55.600Z,99.90
2022-09-28T04:26:44.273Z,99.90
2022-09-28T04:29:31.886Z,99.90
2022-09-28T04:32:20.607Z,99.90
2022-09-28T04:35:12.672Z,99.90
2022-09-28T04:38:01.351Z,99.90
2022-09-28T04:40:50.944Z,99.90
2022-09-28T04:43:39.683Z,99.90
2022-09-28T04:46:28.420Z,99.90
2022-09-28T04:49:17.365Z,99.90
2022-09-28T04:52:07.822Z,99.90
2022-09-28T04:54:56.626Z,99.90
2022-09-28T04:57:45.326Z,99.90
2022-09-28T05:00:35.650Z,99.90
2022-09-28T05:03:24.408Z,99.90
2022-09-28T05:06:16.318Z,99.90
2022-09-28T05:09:06.425Z,99.90
2022-09-28T05:11:55.137Z,99.90
2022-09-28T05:14:43.798Z,99.90
2022-09-28T05:17:32.905Z,99.90
2022-09-28T05:20:21.602Z,99.90
2022-09-28T05:23:12.612Z,99.90
2022-09-28T05:26:04.445Z,99.90
2022-09-28T05:28:53.136Z,99.90
2022-09-28T05:31:41.995Z,99.90
2022-09-28T05:34:30.705Z,99.90
2022-09-28T05:37:19.405Z,99.90
2022-09-28T05:40:09.065Z,99.90
2022-09-28T05:43:02.534Z,99.90
2022-09-28T05:45:55.322Z,99.90
2022-09-28T05:48:44.799Z,99.90
2022-09-28T05:51:33.550Z,99.90
2022-09-28T05:54:22.207Z,99.90
2022-09-28T05:57:11.044Z,99.90
2022-09-28T06:00:01.192Z,99.90
2022-09-28T06:02:57.906Z,99.90
2022-09-28T06:05:47.446Z,99.90
2022-09-28T06:08:36.145Z,99.90
2022-09-28T06:11:27.964Z,99.90
2022-09-28T06:14:16.700Z,99.90
2022-09-28T06:17:06.969Z,99.90
2022-09-28T06:19:55.933Z,99.90
2022-09-28T06:22:44.659Z,99.90
2022-09-28T06:25:33.759Z,99.90
2022-09-28T06:28:22.458Z,99.90
2022-09-28T06:31:11.357Z,99.90
2022-09-28T06:34:02.175Z,99.90
2022-09-28T06:36:50.834Z,99.90
2022-09-28T06:39:39.461Z,99.90
2022-09-28T06:42:28.133Z,99.90
2022-09-28T06:45:20.121Z,99.90
2022-09-28T06:48:09.800Z,99.90
2022-09-28T06:51:00.348Z,99.90
2022-09-28T06:53:48.985Z,99.90
2022-09-28T06:56:37.666Z,99.90
2022-09-28T06:59:26.408Z,99.50
2022-09-28T07:02:15.523Z,98.00
2022-09-28T07:05:04.289Z,97.90
2022-09-28T07:07:55.327Z,98.80
2022-09-28T07:10:45.308Z,99.60
2022-09-28T07:13:49.763Z,98.80
2022-09-28T07:17:06.888Z,98.90
2022-09-28T07:19:52.702Z,97.50
2022-09-28T07:22:43.825Z,97.80
2022-09-28T07:25:35.405Z,96.70
2022-09-28T07:28:24.160Z,96.90
2022-09-28T07:31:12.907Z,97.70
2022-09-28T07:34:01.635Z,98.10
2022-09-28T07:36:50.406Z,98.40
2022-09-28T07:39:53.041Z,98.80
2022-09-28T07:42:43.136Z,99.60
2022-09-28T07:45:35.375Z,99.70
2022-09-28T07:48:24.766Z,99.30
2022-09-28T07:51:13.578Z,98.00
2022-09-28T07:54:02.514Z,98.40
2022-09-28T07:56:51.170Z,98.80
2022-09-28T07:59:41.257Z,99.90
2022-09-28T08:02:34.000Z,99.90
2022-09-28T08:05:22.812Z,99.90
2022-09-28T08:08:11.919Z,97.70
2022-09-28T08:11:00.548Z,97.10
2022-09-28T08:13:49.288Z,96.00
2022-09-28T08:16:39.352Z,96.60
2022-09-28T08:19:48.285Z,98.30
2022-09-28T08:22:37.228Z,99.70
2022-09-28T08:25:26.017Z,98.50
2022-09-28T08:28:16.295Z,97.30
2022-09-28T08:31:07.496Z,92.40
2022-09-28T08:33:58.759Z,90.20
2022-09-28T08:36:47.438Z,91.20
2022-09-28T08:39:36.369Z,89.10
2022-09-28T08:42:34.343Z,91.30
2022-09-28T08:45:27.224Z,89.20
2022-09-28T08:48:38.280Z,89.80
2022-09-28T08:51:32.968Z,88.30
2022-09-28T08:54:31.803Z,83.70
2022-09-28T08:57:24.086Z,85.60
2022-09-28T09:00:20.907Z,82.20
2022-09-28T09:03:14.460Z,82.50
2022-09-28T09:06:09.815Z,82.90
2022-09-28T09:09:10.105Z,80.00
2022-09-28T09:12:08.333Z,75.90
2022-09-28T09:15:11.416Z,80.20
2022-09-28T09:18:19.759Z,77.90
2022-09-28T09:21:15.594Z,78.60
2022-09-28T09:24:19.726Z,76.20
2022-09-28T09:27:38.179Z,74.70
2022-09-28T09:30:30.239Z,72.60
2022-09-28T09:33:46.001Z,76.10
2022-09-28T09:36:46.040Z,76.90
2022-09-28T09:39:47.420Z,80.10
2022-09-28T09:42:51.616Z,79.30
2022-09-28T09:45:56.714Z,79.50
2022-09-28T09:48:52.504Z,80.30
2022-09-28T09:51:44.927Z,82.60
2022-09-28T09:54:40.631Z,84.70
2022-09-28T09:57:33.832Z,85.50
2022-09-28T10:00:23.235Z,86.20
2022-09-28T10:03:22.323Z,83.70
2022-09-28T10:06:14.329Z,80.40
2022-09-28T10:09:06.859Z,81.40
2022-09-28T10:11:57.058Z,81.10
2022-09-28T10:14:46.634Z,80.40
2022-09-28T10:17:38.524Z,80.60
2022-09-28T10:20:28.752Z,82.10
2022-09-28T10:23:23.661Z,81.60
2022-09-28T10:26:18.071Z,83.20
2022-09-28T10:29:16.327Z,84.10
2022-09-28T10:32:20.122Z,83.90
2022-09-28T10:35:30.851Z,85.30
2022-09-28T10:38:20.464Z,86.50
2022-09-28T10:41:13.593Z,84.40
2022-09-28T10:44:08.745Z,84.50
2022-09-28T10:47:01.828Z,81.60
2022-09-28T10:49:53.310Z,80.00
2022-09-28T10:52:45.051Z,77.20
2022-09-28T10:55:37.029Z,74.70
2022-09-28T10:58:28.533Z,74.50
2022-09-28T11:01:20.490Z,73.60
2022-09-28T11:04:22.073Z,73.40
2022-09-28T11:07:19.431Z,73.40
2022-09-28T11:10:20.834Z,73.30
2022-09-28T11:13:10.876Z,74.00
2022-09-28T11:15:59.639Z,73.80
2022-09-28T11:18:48.406Z,72.40
2022-09-28T11:21:46.112Z,73.70
2022-09-28T11:24:34.770Z,73.00
2022-09-28T11:27:25.673Z,71.00
2022-09-28T11:30:26.441Z,72.40
2022-09-28T11:33:20.737Z,72.20
2022-09-28T11:36:29.998Z,73.90
2022-09-28T11:39:29.952Z,76.30
2022-09-28T11:42:31.743Z,77.70
2022-09-28T11:45:36.857Z,78.60
2022-09-28T11:48:28.901Z,80.30
2022-09-28T11:51:22.459Z,76.40
2022-09-28T11:54:17.237Z,71.90
2022-09-28T11:57:13.517Z,73.40
2022-09-28T12:00:05.696Z,69.40
2022-09-28T12:03:00.731Z,69.40
2022-09-28T12:05:53.335Z,69.00
2022-09-28T12:08:52.031Z,70.00
2022-09-28T12:11:44.872Z,73.00
2022-09-28T12:14:39.663Z,74.30
2022-09-28T12:17:33.998Z,80.30
2022-09-28T12:20:26.853Z,82.60
2022-09-28T12:23:19.352Z,82.80
2022-09-28T12:26:20.247Z,80.40
2022-09-28T12:29:15.127Z,79.10
2022-09-28T12:32:15.613Z,75.60
2022-09-28T12:35:05.157Z,73.30
2022-09-28T12:38:11.806Z,74.40
2022-09-28T12:41:09.822Z,72.60
2022-09-28T12:44:18.761Z,70.60
2022-09-28T12:47:44.433Z,66.00
2022-09-28T12:50:44.741Z,63.70
2022-09-28T12:53:56.448Z,63.00
2022-09-28T12:56:56.387Z,60.30
2022-09-28T12:59:54.339Z,54.50
2022-09-28T13:03:27.136Z,50.00
2022-09-28T13:06:38.915Z,56.90
2022-09-28T13:09:29.118Z,54.70
2022-09-28T13:12:44.150Z,53.80
2022-09-28T13:15:44.153Z,44.50
2022-09-28T13:18:37.548Z,38.60
2022-09-28T13:21:35.328Z,41.50
2022-09-28T13:24:33.463Z,41.30
2022-09-28T13:27:30.259Z,47.50
2022-09-28T13:30:19.679Z,51.90
2022-09-28T13:33:11.739Z,61.70
2022-09-28T13:36:03.208Z,68.10
2022-09-28T13:38:53.713Z,74.70
2022-09-28T13:41:50.726Z,78.40
2022-09-28T13:45:16.649Z,81.30
2022-09-28T13:48:15.753Z,82.20
2022-09-28T13:51:32.033Z,81.20
2022-09-28T13:54:41.982Z,82.90
2022-09-28T13:57:35.900Z,85.60
2022-09-28T14:00:29.716Z,81.80
2022-09-28T14:03:28.647Z,80.90
2022-09-28T14:06:25.973Z,79.20
2022-09-28T14:09:28.031Z,78.00
2022-09-28T14:12:55.887Z,77.00
2022-09-28T14:15:46.817Z,79.70
2022-09-28T14:18:37.333Z,80.70
2022-09-28T14:22:02.613Z,83.80
2022-09-28T14:25:09.866Z,86.00
2022-09-28T14:28:23.301Z,85.20
2022-09-28T14:31:24.712Z,85.50
2022-09-28T14:34:27.141Z,83.20
2022-09-28T14:37:39.445Z,85.20
2022-09-28T14:40:49.924Z,81.20
2022-09-28T14:44:03.882Z,83.20
2022-09-28T14:47:34.830Z,81.50
2022-09-28T14:50:25.518Z,82.40
2022-09-28T14:53:19.629Z,79.00
2022-09-28T14:56:10.407Z,80.00
2022-09-28T14:59:01.005Z,83.00
2022-09-28T15:01:55.350Z,84.40
2022-09-28T15:04:47.956Z,85.70
2022-09-28T15:07:48.032Z,85.60
2022-09-28T15:10:39.223Z,87.40
2022-09-28T15:13:30.130Z,86.70
2022-09-28T15:16:25.275Z,84.40
2022-09-28T15:19:28.185Z,86.30
2022-09-28T15:22:17.649Z,86.30
2022-09-28T15:25:14.707Z,78.30
2022-09-28T15:28:22.244Z,77.10
2022-09-28T15:31:21.504Z,77.10
2022-09-28T15:34:45.010Z,77.30
2022-09-28T15:37:40.650Z,75.30
2022-09-28T15:40:34.705Z,76.40
2022-09-28T15:43:27.189Z,77.20
2022-09-28T15:46:20.757Z,76.90
2022-09-28T15:49:21.713Z,77.10
2022-09-28T15:52:25.276Z,79.80
2022-09-28T15:55:22.134Z,79.60
2022-09-28T15:58:19.261Z,80.80
2022-09-28T16:01:39.885Z,81.20
2022-09-28T16:04:38.478Z,80.70
2022-09-28T16:07:33.437Z,81.50
2022-09-28T16:10:37.223Z,81.20
2022-09-28T16:13:26.194Z,82.50
2022-09-28T16:16:17.971Z,82.30
2022-09-28T16:19:08.577Z,81.50
2022-09-28T16:21:59.097Z,81.40
2022-09-28T16:24:56.144Z,80.80
2022-09-28T16:27:45.901Z,81.10
2022-09-28T16:30:35.885Z,83.00
2022-09-28T16:33:30.191Z,84.00
2022-09-28T16:36:22.510Z,83.20
2022-09-28T16:39:12.594Z,84.00
2022-09-28T16:42:03.736Z,84.80
2022-09-28T16:44:52.372Z,84.90
2022-09-28T16:47:41.035Z,85.80
2022-09-28T16:50:29.814Z,85.90
2022-09-28T16:53:37.221Z,86.40
2022-09-28T16:56:27.654Z,86.60
2022-09-28T16:59:16.453Z,87.00
2022-09-28T17:02:42.046Z,86.60
2022-09-28T17:05:26.357Z,87.20
2022-09-28T17:08:17.590Z,88.00
2022-09-28T17:11:15.852Z,87.90
2022-09-28T17:14:08.970Z,88.10
2022-09-28T17:20:22.511Z,88.70
2022-09-28T17:23:11.490Z,89.30
2022-09-28T17:26:00.621Z,89.00
2022-09-28T17:28:50.708Z,88.20
2022-09-28T17:31:39.367Z,87.90
2022-09-28T17:34:28.071Z,87.20
2022-09-28T17:37:17.234Z,87.70
2022-09-28T17:40:16.183Z,87.40
2022-09-28T17:43:05.842Z,87.60
2022-09-28T17:45:56.014Z,86.90
2022-09-28T17:48:47.153Z,87.40
2022-09-28T17:51:37.647Z,88.00
2022-09-28T17:54:26.719Z,88.90
2022-09-28T17:57:15.462Z,89.80
2022-09-28T18:00:04.812Z,90.30
2022-09-28T18:02:55.623Z,90.50
2022-09-28T18:05:44.926Z,89.50
2022-09-28T18:08:34.893Z,90.00
2022-09-28T18:11:23.819Z,90.30
2022-09-28T18:14:12.493Z,90.50
2022-09-28T18:17:01.233Z,90.90
2022-09-28T18:19:51.333Z,91.20
2022-09-28T18:22:40.288Z,91.00
2022-09-28T18:25:29.770Z,90.50
2022-09-28T18:28:18.715Z,90.30
2022-09-28T18:31:09.552Z,89.10
2022-09-28T18:34:02.052Z,89.10
2022-09-28T18:36:52.083Z,89.00
2022-09-28T18:39:40.809Z,89.20
2022-09-28T18:42:29.488Z,89.70
2022-09-28T18:45:18.648Z,89.20
2022-09-28T18:48:07.827Z,90.10
2022-09-28T18:50:56.496Z,89.40
2022-09-28T18:53:46.634Z,89.60
2022-09-28T18:56:38.130Z,90.00
2022-09-28T18:59:27.129Z,89.90
2022-09-28T19:02:15.912Z,90.00
2022-09-28T19:05:05.737Z,89.90
2022-09-28T19:07:55.191Z,90.00
2022-09-28T19:10:48.657Z,89.70
2022-09-28T19:13:37.512Z,89.20
2022-09-28T19:16:28.479Z,89.40
2022-09-28T19:19:19.589Z,90.20
2022-09-28T19:22:08.272Z,89.40
2022-09-28T19:24:57.210Z,89.60
2022-09-28T19:27:48.036Z,89.20
2022-09-28T19:30:36.836Z,89.30
2022-09-28T19:33:25.545Z,89.60
2022-09-28T19:36:15.881Z,89.10
2022-09-28T19:39:05.197Z,88.90
2022-09-28T19:41:54.365Z,87.90
2022-09-28T19:44:44.482Z,86.50
2022-09-28T19:47:33.228Z,86.20
2022-09-28T19:50:22.320Z,85.10
2022-09-28T19:53:10.978Z,85.20
2022-09-28T19:56:05.453Z,85.80
2022-09-28T19:58:54.160Z,87.10
2022-09-28T20:01:44.272Z,87.50
2022-09-28T20:04:32.987Z,88.00
2022-09-28T20:07:22.218Z,88.30
2022-09-28T20:10:12.399Z,88.70
2022-09-28T20:13:01.059Z,88.90
2022-09-28T20:15:49.983Z,89.10
2022-09-28T20:18:43.766Z,89.50
2022-09-28T20:21:32.432Z,89.90
2022-09-28T20:24:21.117Z,90.40
2022-09-28T20:27:09.732Z,91.10
2022-09-28T20:29:59.184Z,91.50
2022-09-28T20:32:49.648Z,92.30
2022-09-28T20:35:40.614Z,93.10
2022-09-28T20:38:29.507Z,93.40
2022-09-28T20:41:20.498Z,93.90
2022-09-28T20:44:10.038Z,94.40
2022-09-28T20:46:58.756Z,95.30
2022-09-28T20:49:47.678Z,96.10
2022-09-28T20:52:37.712Z,95.70
2022-09-28T20:55:26.357Z,95.30
2022-09-28T20:58:15.062Z,94.50
2022-09-28T21:01:05.280Z,94.00
2022-09-28T21:03:55.272Z,93.80
2022-09-28T21:06:44.261Z,93.70
2022-09-28T21:09:34.330Z,93.50
2022-09-28T21:12:26.018Z,94.00
2022-09-28T21:15:14.776Z,93.70
2022-09-28T21:18:03.847Z,93.70
2022-09-28T21:20:53.088Z,93.70
2022-09-28T21:23:42.812Z,94.20
2022-09-28T21:26:33.350Z,95.40
2022-09-28T21:29:22.006Z,96.10
2022-09-28T21:32:10.654Z,96.80
2022-09-28T21:34:59.696Z,97.10
2022-09-28T21:37:48.313Z,96.90
2022-09-28T21:40:37.047Z,95.70
2022-09-28T21:43:28.432Z,95.20
2022-09-28T21:46:17.663Z,94.90
2022-09-28T21:49:08.585Z,94.60
2022-09-28T21:51:57.198Z,94.60
2022-09-28T21:54:45.876Z,94.80
2022-09-28T21:57:34.500Z,94.90
2022-09-28T22:00:24.832Z,94.80
2022-09-28T22:03:13.517Z,94.40
2022-09-28T22:06:02.462Z,94.40
2022-09-28T22:08:51.637Z,93.80
2022-09-28T22:11:40.257Z,93.90
2022-09-28T22:14:28.900Z,94.00
2022-09-28T22:17:18.973Z,94.30
2022-09-28T22:20:08.457Z,94.40
2022-09-28T22:22:57.086Z,94.10
2022-09-28T22:25:45.750Z,94.00
2022-09-28T22:28:34.763Z,94.00
2022-09-28T22:31:25.309Z,94.40
2022-09-28T22:34:15.454Z,94.40
2022-09-28T22:37:04.533Z,94.70
2022-09-28T22:39:55.021Z,95.00
2022-09-28T22:42:43.642Z,95.40
2022-09-28T22:45:32.288Z,95.60
2022-09-28T22:48:20.899Z,95.90
2022-09-28T22:51:10.971Z,95.80
2022-09-28T22:53:59.761Z,95.50
2022-09-28T22:56:48.433Z,95.50
2022-09-28T22:59:37.100Z,95.30
2022-09-28T23:02:25.846Z,95.10
2022-09-28T23:05:14.656Z,95.10
2022-09-28T23:08:04.955Z,95.10
2022-09-28T23:10:53.745Z,94.50
2022-09-28T23:13:42.389Z,94.60
2022-09-28T23:16:31.032Z,95.30
2022-09-28T23:19:19.797Z,95.30
2022-09-28T23:22:08.588Z,95.20
2022-09-28T23:24:58.679Z,95.10
2022-09-28T23:27:47.771Z,95.10
2022-09-28T23:30:36.543Z,95.20
2022-09-28T23:33:25.189Z,95.20
2022-09-28T23:36:14.064Z,95.30
2022-09-28T23:39:02.728Z,94.90
2022-09-28T23:41:52.762Z,94.40
2022-09-28T23:44:41.406Z,93.80
2022-09-28T23:47:30.041Z,93.90
2022-09-28T23:50:18.853Z,95.00
2022-09-28T23:53:07.438Z,95.70
2022-09-28T23:55:56.294Z,97.20
2022-09-28T23:58:46.397Z,97.00
